Wetterdaten: Woche 02.02.04 - 08.02.04 (KW6)
Datum Zeit Temp. A Sch. Temp. A Son. Feuchte A. Luftdruck Regen Wind Richtung Sonnenschein Helligkeit Taupunkt Windchill
02.02.2004 00:00 8,1 C 8,4 C 77 % 1017 hPa 0,7 l/m 6,3 m/s (2 Bft) SW 0,00 h 0 lux 4,3 C 0,1 C
02.02.2004 01:00 8,3 C 8,3 C 80 % 1016 hPa 0,0 l/m 5,9 m/s (2 Bft) SW 0,00 h 0 lux 5,1 C 0,8 C
02.02.2004 02:00 9,5 C 9,2 C 74 % 1016 hPa 0,0 l/m 6,6 m/s (2 Bft) W-SW 0,00 h 0 lux 5,0 C 1,6 C
02.02.2004 03:00 9,9 C 9,7 C 72 % 1017 hPa 0,0 l/m 5,8 m/s (2 Bft) W-SW 0,00 h 0 lux 5,0 C 3,0 C
02.02.2004 04:00 10,0 C 9,9 C 69 % 1017 hPa 0,0 l/m 7,2 m/s (2 Bft) W-SW 0,00 h 0 lux 4,6 C 1,8 C
02.02.2004 05:00 9,8 C 9,9 C 70 % 1017 hPa 0,0 l/m 6,4 m/s (2 Bft) W-SW 0,00 h 0 lux 4,5 C 2,3 C
02.02.2004 06:00 9,9 C 9,9 C 68 % 1018 hPa 0,0 l/m 6,7 m/s (2 Bft) W-SW 0,00 h 0 lux 4,3 C 2,1 C
02.02.2004 07:00 9,7 C 9,8 C 70 % 1018 hPa 0,0 l/m 5,9 m/s (2 Bft) W-SW 0,00 h 66 lux 4,4 C 2,6 C
02.02.2004 08:00 9,7 C 9,8 C 70 % 1018 hPa 0,0 l/m 5,7 m/s (1 Bft) W-SW 0,00 h 809 lux 4,5 C 2,8 C
02.02.2004 09:00 9,6 C 9,8 C 71 % 1019 hPa 0,4 l/m 5,4 m/s (1 Bft) W-SW 0,00 h 2,88 klux 4,7 C 3,0 C
02.02.2004 10:00 8,9 C 9,3 C 80 % 1019 hPa 0,7 l/m 4,3 m/s (1 Bft) W-SW 0,00 h 3,60 klux 5,6 C 3,8 C
02.02.2004 11:00 8,8 C 9,0 C 83 % 1019 hPa 1,1 l/m 4,2 m/s (1 Bft) W-SW 0,00 h 6,07 klux 6,0 C 3,7 C
02.02.2004 12:00 8,9 C 9,1 C 83 % 1019 hPa 1,1 l/m 5,0 m/s (1 Bft) W-SW 0,00 h 6,59 klux 6,2 C 2,8 C
02.02.2004 13:00 8,7 C 9,0 C 85 % 1019 hPa 1,8 l/m 3,5 m/s (1 Bft) W-SW 0,00 h 4,05 klux 6,3 C 4,8 C
02.02.2004 14:00 8,9 C 9,1 C 86 % 1019 hPa 1,1 l/m 2,8 m/s (1 Bft) W-SW 0,00 h 3,99 klux 6,7 C 6,4 C
02.02.2004 15:00 9,1 C 9,2 C 87 % 1019 hPa 1,1 l/m 3,2 m/s (1 Bft) W-SW 0,00 h 1,71 klux 7,0 C 5,9 C
02.02.2004 16:00 10,2 C 9,8 C 86 % 1020 hPa 0,4 l/m 6,6 m/s (2 Bft) W-SW 0,00 h 635 lux 7,9 C 2,9 C
02.02.2004 17:00 10,9 C 10,6 C 81 % 1021 hPa 0,0 l/m 8,7 m/s (2 Bft) W-SW 0,00 h 45 lux 7,7 C 1,9 C
02.02.2004 18:00 11,1 C 10,8 C 76 % 1022 hPa 0,0 l/m 9,0 m/s (2 Bft) W-SW 0,00 h 0 lux 6,9 C 1,8 C
02.02.2004 19:00 11,1 C 11,0 C 72 % 1022 hPa 0,0 l/m 8,0 m/s (2 Bft) W-SW 0,00 h 0 lux 6,2 C 2,6 C
02.02.2004 20:00 11,1 C 11,0 C 70 % 1023 hPa 0,0 l/m 7,1 m/s (2 Bft) W-SW 0,00 h 0 lux 5,8 C 3,3 C
02.02.2004 21:00 10,9 C 10,9 C 71 % 1024 hPa 0,0 l/m 4,8 m/s (1 Bft) W-SW 0,00 h 0 lux 5,9 C 5,3 C
02.02.2004 22:00 10,9 C 10,9 C 72 % 1025 hPa 0,0 l/m 5,5 m/s (1 Bft) W-SW 0,00 h 0 lux 6,0 C 4,5 C
02.02.2004 23:00 10,5 C 10,7 C 73 % 1025 hPa 0,0 l/m 4,8 m/s (1 Bft) W-SW 0,00 h 0 lux 5,9 C 5,0 C
03.02.2004 00:00 10,1 C 10,4 C 74 % 1026 hPa 0,0 l/m 4,2 m/s (1 Bft) W-SW 0,00 h 0 lux 5,8 C 5,4 C
03.02.2004 01:00 9,8 C 10,1 C 77 % 1026 hPa 0,0 l/m 4,1 m/s (1 Bft) W-SW 0,00 h 0 lux 5,9 C 5,0 C
03.02.2004 02:00 9,2 C 9,4 C 78 % 1026 hPa 0,0 l/m 3,5 m/s (1 Bft) W-SW 0,00 h 0 lux 5,6 C 5,3 C
03.02.2004 03:00 9,3 C 9,4 C 76 % 1026 hPa 0,0 l/m 3,8 m/s (1 Bft) W-SW 0,00 h 0 lux 5,3 C 4,9 C
03.02.2004 04:00 9,2 C 9,4 C 75 % 1026 hPa 0,0 l/m 3,7 m/s (1 Bft) W-SW 0,00 h 0 lux 5,1 C 5,0 C
03.02.2004 05:00 8,5 C 8,6 C 79 % 1026 hPa 0,0 l/m 4,4 m/s (1 Bft) W-SW 0,00 h 0 lux 5,1 C 3,0 C
03.02.2004 06:00 8,7 C 8,5 C 79 % 1026 hPa 0,0 l/m 4,9 m/s (1 Bft) W-SW 0,00 h 0 lux 5,3 C 2,5 C
03.02.2004 07:00 9,2 C 9,0 C 76 % 1026 hPa 0,0 l/m 4,5 m/s (1 Bft) W-SW 0,00 h 100 lux 5,1 C 3,7 C
03.02.2004 08:00 9,1 C 9,1 C 75 % 1026 hPa 0,0 l/m 6,0 m/s (2 Bft) W-SW 0,17 h 3,78 klux 4,9 C 1,7 C
03.02.2004 09:00 9,3 C 9,3 C 74 % 1027 hPa 0,0 l/m 4,8 m/s (1 Bft) W-SW 0,92 h 16,7 klux 4,9 C 3,4 C
03.02.2004 10:00 10,6 C 10,8 C 69 % 1027 hPa 0,0 l/m 4,9 m/s (1 Bft) W-SW 1,00 h 30,2 klux 5,2 C 4,9 C
03.02.2004 11:00 11,2 C 11,9 C 66 % 1027 hPa 0,0 l/m 5,3 m/s (1 Bft) W-SW 0,33 h 24,9 klux 5,1 C 5,2 C
03.02.2004 12:00 12,3 C 12,7 C 65 % 1027 hPa 0,0 l/m 4,5 m/s (1 Bft) W-SW 0,50 h 29,1 klux 5,9 C 7,5 C
03.02.2004 13:00 12,8 C 13,9 C 64 % 1027 hPa 0,0 l/m 4,9 m/s (1 Bft) SW 0,25 h 23,1 klux 6,2 C 7,7 C
03.02.2004 14:00 12,7 C 13,1 C 65 % 1027 hPa 0,0 l/m 4,5 m/s (1 Bft) W-SW 0,00 h 15,4 klux 6,3 C 8,0 C
03.02.2004 15:00 12,3 C 12,8 C 65 % 1027 hPa 0,0 l/m 4,7 m/s (1 Bft) W-SW 0,00 h 11,3 klux 6,0 C 7,3 C
03.02.2004 16:00 12,1 C 12,4 C 66 % 1027 hPa 0,0 l/m 4,2 m/s (1 Bft) W-SW 0,00 h 4,43 klux 6,0 C 7,7 C
03.02.2004 17:00 11,8 C 11,8 C 67 % 1027 hPa 0,0 l/m 4,3 m/s (1 Bft) W 0,00 h 265 lux 5,9 C 7,3 C
03.02.2004 18:00 11,3 C 11,2 C 67 % 1028 hPa 0,0 l/m 5,2 m/s (1 Bft) W-SW 0,00 h 16 lux 5,3 C 5,4 C
03.02.2004 19:00 11,0 C 10,8 C 66 % 1028 hPa 0,0 l/m 5,1 m/s (1 Bft) W-SW 0,00 h 0 lux 4,9 C 5,1 C
03.02.2004 20:00 10,5 C 10,3 C 66 % 1028 hPa 0,0 l/m 4,3 m/s (1 Bft) W-SW 0,00 h 0 lux 4,4 C 5,5 C
03.02.2004 21:00 10,2 C 10,1 C 65 % 1028 hPa 0,0 l/m 3,5 m/s (1 Bft) W 0,00 h 0 lux 3,9 C 6,5 C
03.02.2004 22:00 10,3 C 10,0 C 64 % 1028 hPa 0,0 l/m 3,0 m/s (1 Bft) W-SW 0,00 h 0 lux 3,8 C 7,5 C
03.02.2004 23:00 10,5 C 10,4 C 63 % 1028 hPa 0,0 l/m 3,1 m/s (1 Bft) W 0,00 h 0 lux 3,7 C 7,8 C
04.02.2004 00:00 9,9 C 10,1 C 65 % 1028 hPa 0,0 l/m 2,9 m/s (1 Bft) W-SW 0,00 h 0 lux 3,6 C 7,3 C
04.02.2004 01:00 9,0 C 9,3 C 67 % 1028 hPa 0,0 l/m 1,5 m/s (1 Bft) W 0,00 h 0 lux 3,2 C 8,6 C
04.02.2004 02:00 8,1 C 8,3 C 69 % 1028 hPa 0,0 l/m 1,0 m/s (0 Bft) O-NO 0,00 h 0 lux 2,7 C 7,9 C
04.02.2004 03:00 7,0 C 7,0 C 72 % 1028 hPa 0,0 l/m 0,7 m/s (0 Bft) O-NO 0,00 h 0 lux 2,3 C 7,0 C
04.02.2004 04:00 7,6 C 7,3 C 69 % 1028 hPa 0,0 l/m 0,6 m/s (0 Bft) N-NO 0,00 h 0 lux 2,2 C 7,5 C
04.02.2004 05:00 7,8 C 8,0 C 67 % 1028 hPa 0,0 l/m 0,4 m/s (0 Bft) S-SW 0,00 h 0 lux 2,0 C 7,8 C
04.02.2004 06:00 7,4 C 7,6 C 68 % 1028 hPa 0,0 l/m 0,2 m/s (0 Bft) NO 0,00 h 0 lux 1,9 C 7,3 C
04.02.2004 07:00 7,4 C 7,4 C 70 % 1028 hPa 0,0 l/m 0,6 m/s (0 Bft) W 0,00 h 93 lux 2,3 C 7,1 C
04.02.2004 08:00 6,9 C 7,2 C 73 % 1028 hPa 0,0 l/m 0,4 m/s (0 Bft) W 0,00 h 2,68 klux 2,3 C 6,9 C
04.02.2004 09:00 8,6 C 8,3 C 68 % 1028 hPa 0,0 l/m 1,1 m/s (1 Bft) W-SW 0,00 h 9,5 klux 3,0 C 8,3 C
04.02.2004 10:00 10,2 C 10,0 C 63 % 1029 hPa 0,0 l/m 1,7 m/s (1 Bft) W-SW 0,00 h 9,1 klux 3,4 C 9,2 C
04.02.2004 11:00 11,5 C 11,4 C 59 % 1029 hPa 0,0 l/m 0,7 m/s (0 Bft) SW 0,00 h 16,6 klux 3,9 C 11,4 C
04.02.2004 12:00 12,4 C 12,6 C 57 % 1029 hPa 0,0 l/m 3,1 m/s (1 Bft) SW 0,25 h 25,1 klux 4,1 C 9,7 C
04.02.2004 13:00 13,4 C 14,1 C 54 % 1028 hPa 0,0 l/m 3,8 m/s (1 Bft) SW 0,00 h 20,5 klux 4,3 C 9,8 C
04.02.2004 14:00 13,9 C 14,1 C 52 % 1028 hPa 0,0 l/m 4,5 m/s (1 Bft) W-SW 0,08 h 17,6 klux 4,2 C 9,7 C
04.02.2004 15:00 14,0 C 14,2 C 50 % 1027 hPa 0,0 l/m 5,5 m/s (1 Bft) W-SW 0,00 h 9,1 klux 3,6 C 8,6 C
04.02.2004 16:00 13,5 C 13,7 C 52 % 1027 hPa 0,0 l/m 5,3 m/s (1 Bft) W-SW 0,00 h 3,49 klux 3,8 C 8,2 C
04.02.2004 17:00 12,7 C 13,0 C 54 % 1027 hPa 0,0 l/m 4,5 m/s (1 Bft) W-SW 0,08 h 572 lux 3,7 C 8,0 C
04.02.2004 18:00 12,2 C 12,2 C 55 % 1026 hPa 0,0 l/m 4,2 m/s (1 Bft) W-SW 0,00 h 27 lux 3,5 C 7,8 C
04.02.2004 19:00 11,8 C 11,7 C 57 % 1026 hPa 0,0 l/m 3,6 m/s (1 Bft) W 0,00 h 0 lux 3,5 C 8,3 C
04.02.2004 20:00 11,7 C 11,5 C 57 % 1026 hPa 0,0 l/m 3,5 m/s (1 Bft) W-SW 0,00 h 0 lux 3,4 C 8,3 C
04.02.2004 21:00 11,9 C 11,7 C 57 % 1026 hPa 0,4 l/m 4,8 m/s (1 Bft) W-SW 0,00 h 0 lux 3,7 C 6,7 C
04.02.2004 22:00 11,9 C 11,7 C 55 % 1025 hPa 0,0 l/m 5,7 m/s (1 Bft) W 0,00 h 0 lux 3,1 C 5,6 C
04.02.2004 23:00 11,9 C 11,7 C 54 % 1025 hPa 0,0 l/m 6,5 m/s (2 Bft) W 0,00 h 0 lux 2,9 C 4,9 C
05.02.2004 00:00 12,0 C 12,0 C 53 % 1025 hPa 0,0 l/m 7,1 m/s (2 Bft) W 0,00 h 0 lux 2,8 C 4,6 C
05.02.2004 01:00 11,8 C 11,9 C 53 % 1024 hPa 0,0 l/m 7,3 m/s (2 Bft) W 0,00 h 0 lux 2,6 C 4,1 C
05.02.2004 02:00 11,8 C 11,8 C 52 % 1024 hPa 0,0 l/m 6,6 m/s (2 Bft) W 0,00 h 0 lux 2,1 C 4,7 C
05.02.2004 03:00 11,5 C 11,5 C 51 % 1024 hPa 0,0 l/m 6,4 m/s (2 Bft) W-SW 0,00 h 0 lux 1,8 C 4,5 C
05.02.2004 04:00 11,0 C 11,0 C 52 % 1024 hPa 0,0 l/m 5,9 m/s (2 Bft) W-SW 0,00 h 0 lux 1,4 C 4,3 C
05.02.2004 05:00 10,4 C 10,4 C 53 % 1024 hPa 0,0 l/m 5,9 m/s (2 Bft) W 0,00 h 0 lux 1,3 C 3,5 C
05.02.2004 06:00 10,4 C 10,2 C 53 % 1023 hPa 0,0 l/m 5,7 m/s (1 Bft) W-SW 0,00 h 0 lux 1,3 C 3,6 C
05.02.2004 07:00 10,3 C 10,4 C 54 % 1023 hPa 0,0 l/m 6,1 m/s (2 Bft) W-SW 0,00 h 83 lux 1,3 C 3,2 C
05.02.2004 08:00 10,2 C 10,5 C 55 % 1024 hPa 0,0 l/m 4,8 m/s (1 Bft) W-SW 0,00 h 1,36 klux 1,7 C 4,6 C
05.02.2004 09:00 10,3 C 10,5 C 58 % 1024 hPa 0,0 l/m 5,3 m/s (1 Bft) W-SW 0,00 h 4,19 klux 2,4 C 4,0 C
05.02.2004 10:00 10,5 C 10,8 C 64 % 1024 hPa 0,0 l/m 5,4 m/s (1 Bft) W-SW 0,00 h 9,5 klux 4,0 C 4,1 C
05.02.2004 11:00 10,5 C 10,8 C 69 % 1025 hPa 0,0 l/m 4,8 m/s (1 Bft) W-SW 0,00 h 11,7 klux 4,9 C 4,9 C
05.02.2004 12:00 10,7 C 11,1 C 70 % 1025 hPa 0,0 l/m 4,9 m/s (1 Bft) W-SW 0,00 h 8,86 klux 5,5 C 5,1 C
05.02.2004 13:00 11,2 C 11,3 C 69 % 1025 hPa 0,0 l/m 4,3 m/s (1 Bft) W-SW 0,00 h 11,4 klux 5,8 C 6,5 C
05.02.2004 14:00 11,7 C 11,9 C 69 % 1024 hPa 0,0 l/m 6,1 m/s (2 Bft) W-SW 0,00 h 4,35 klux 6,3 C 5,1 C
05.02.2004 15:00 11,4 C 11,8 C 73 % 1024 hPa 0,0 l/m 4,4 m/s (1 Bft) W-SW 0,00 h 3,13 klux 6,8 C 6,8 C
05.02.2004 16:00 11,7 C 11,8 C 72 % 1024 hPa 0,0 l/m 4,6 m/s (1 Bft) W-SW 0,00 h 662 lux 6,8 C 6,7 C
05.02.2004 17:00 11,6 C 11,8 C 71 % 1024 hPa 0,0 l/m 4,3 m/s (1 Bft) W-SW 0,00 h 100 lux 6,6 C 7,0 C
05.02.2004 18:00 11,7 C 11,9 C 68 % 1024 hPa 0,0 l/m 4,9 m/s (1 Bft) W-SW 0,00 h 6 lux 6,1 C 6,4 C
05.02.2004 19:00 11,6 C 11,8 C 68 % 1024 hPa 0,0 l/m 4,5 m/s (1 Bft) W-SW 0,00 h 0 lux 5,9 C 6,6 C
05.02.2004 20:00 11,1 C 11,2 C 69 % 1024 hPa 0,0 l/m 3,8 m/s (1 Bft) W-SW 0,00 h 0 lux 5,6 C 7,2 C
05.02.2004 21:00 11,0 C 11,0 C 68 % 1023 hPa 0,0 l/m 4,6 m/s (1 Bft) W-SW 0,00 h 0 lux 5,4 C 5,8 C
05.02.2004 22:00 10,9 C 10,8 C 68 % 1023 hPa 0,0 l/m 3,5 m/s (1 Bft) W-SW 0,00 h 0 lux 5,2 C 7,4 C
05.02.2004 23:00 11,5 C 11,3 C 64 % 1023 hPa 0,0 l/m 4,5 m/s (1 Bft) W-SW 0,00 h 0 lux 4,9 C 6,6 C
06.02.2004 00:00 11,7 C 11,7 C 61 % 1023 hPa 0,0 l/m 4,5 m/s (1 Bft) W-SW 0,00 h 0 lux 4,5 C 6,9 C
06.02.2004 01:00 12,0 C 12,0 C 60 % 1022 hPa 0,0 l/m 5,2 m/s (1 Bft) W-SW 0,00 h 0 lux 4,4 C 6,3 C
06.02.2004 02:00 11,7 C 12,0 C 61 % 1022 hPa 0,0 l/m 5,2 m/s (1 Bft) W-SW 0,00 h 0 lux 4,4 C 6,0 C
06.02.2004 03:00 11,4 C 11,8 C 62 % 1022 hPa 0,0 l/m 4,6 m/s (1 Bft) W-SW 0,00 h 0 lux 4,4 C 6,3 C
06.02.2004 04:00 11,2 C 11,5 C 62 % 1022 hPa 0,0 l/m 4,7 m/s (1 Bft) W-SW 0,00 h 0 lux 4,3 C 6,0 C
06.02.2004 05:00 10,8 C 11,2 C 64 % 1022 hPa 0,0 l/m 3,8 m/s (1 Bft) W-SW 0,00 h 0 lux 4,3 C 6,8 C
06.02.2004 06:00 10,7 C 10,9 C 65 % 1022 hPa 0,0 l/m 3,7 m/s (1 Bft) W 0,00 h 0 lux 4,4 C 6,8 C
06.02.2004 07:00 9,4 C 10,0 C 70 % 1022 hPa 0,0 l/m 2,9 m/s (1 Bft) W-SW 0,00 h 134 lux 4,3 C 6,8 C
06.02.2004 08:00 8,6 C 9,0 C 76 % 1022 hPa 0,0 l/m 2,6 m/s (1 Bft) W 0,00 h 3,37 klux 4,5 C 6,3 C
06.02.2004 09:00 9,2 C 9,2 C 75 % 1021 hPa 0,0 l/m 1,5 m/s (1 Bft) W-SW 0,50 h 16,9 klux 4,9 C 8,9 C
06.02.2004 10:00 10,7 C 11,5 C 69 % 1021 hPa 0,0 l/m 1,8 m/s (1 Bft) SW 1,00 h 34,0 klux 5,2 C 9,4 C
06.02.2004 11:00 11,8 C 13,7 C 65 % 1020 hPa 0,0 l/m 3,1 m/s (1 Bft) SW 0,67 h 31,2 klux 5,3 C 8,9 C
06.02.2004 12:00 12,8 C 14,5 C 57 % 1019 hPa 0,0 l/m 5,7 m/s (1 Bft) W-SW 0,50 h 30,2 klux 4,5 C 6,9 C
06.02.2004 13:00 13,4 C 13,9 C 51 % 1018 hPa 0,0 l/m 5,5 m/s (1 Bft) SW 0,00 h 19,7 klux 3,4 C 8,0 C
06.02.2004 14:00 14,0 C 14,3 C 48 % 1016 hPa 0,0 l/m 5,0 m/s (1 Bft) SW 0,00 h 15,6 klux 3,1 C 9,2 C
06.02.2004 15:00 13,6 C 14,1 C 48 % 1015 hPa 0,0 l/m 5,6 m/s (1 Bft) SW 0,00 h 7,37 klux 2,9 C 8,0 C
06.02.2004 16:00 13,1 C 13,7 C 49 % 1014 hPa 0,0 l/m 4,5 m/s (1 Bft) SW 0,00 h 3,18 klux 2,6 C 8,6 C
06.02.2004 17:00 12,5 C 13,1 C 51 % 1013 hPa 0,0 l/m 3,8 m/s (1 Bft) SW 0,00 h 204 lux 2,6 C 8,9 C
06.02.2004 18:00 12,6 C 12,8 C 50 % 1012 hPa 0,0 l/m 4,4 m/s (1 Bft) SW 0,00 h 1 lux 2,4 C 8,0 C
06.02.2004 19:00 12,3 C 12,7 C 48 % 1011 hPa 0,0 l/m 3,3 m/s (1 Bft) SW 0,00 h 0 lux 1,7 C 9,1 C
06.02.2004 20:00 12,6 C 12,6 C 50 % 1011 hPa 0,0 l/m 6,5 m/s (2 Bft) W-SW 0,00 h 0 lux 2,3 C 6,6 C
06.02.2004 21:00 12,7 C 12,9 C 55 % 1011 hPa 0,0 l/m 7,7 m/s (2 Bft) W-SW 0,00 h 0 lux 3,8 C 5,1 C
06.02.2004 22:00 12,4 C 12,7 C 59 % 1010 hPa 0,0 l/m 6,4 m/s (2 Bft) W-SW 0,00 h 0 lux 4,6 C 5,7 C
06.02.2004 23:00 12,0 C 12,2 C 65 % 1010 hPa 0,0 l/m 6,0 m/s (2 Bft) W-SW 0,00 h 0 lux 5,6 C 5,7 C
07.02.2004 00:00 11,8 C 11,9 C 69 % 1009 hPa 0,0 l/m 7,1 m/s (2 Bft) W-SW 0,00 h 0 lux 6,2 C 4,3 C
07.02.2004 01:00 10,6 C 11,2 C 69 % 1009 hPa 1,1 l/m 10,8 m/s (2 Bft) W-SW 0,00 h 0 lux 5,1 C 0,2 C
07.02.2004 02:00 7,9 C 8,2 C 75 % 1009 hPa 0,4 l/m 9,6 m/s (2 Bft) W 0,00 h 0 lux 3,7 C -2,9 C
07.02.2004 03:00 8,0 C 8,0 C 74 % 1009 hPa 0,4 l/m 7,1 m/s (2 Bft) W 0,00 h 0 lux 3,6 C -0,9 C
07.02.2004 04:00 7,9 C 8,0 C 69 % 1009 hPa 0,0 l/m 7,4 m/s (2 Bft) W-SW 0,00 h 0 lux 2,5 C -1,4 C
07.02.2004 05:00 7,6 C 7,7 C 62 % 1009 hPa 0,0 l/m 9,1 m/s (2 Bft) W-SW 0,00 h 0 lux 0,6 C -3,2 C
07.02.2004 06:00 6,4 C 6,8 C 67 % 1009 hPa 0,4 l/m 7,0 m/s (2 Bft) W-SW 0,00 h 0 lux 0,7 C -2,7 C
07.02.2004 07:00 6,6 C 6,2 C 64 % 1009 hPa 0,0 l/m 8,8 m/s (2 Bft) W-SW 0,00 h 155 lux 0,2 C -4,2 C
07.02.2004 08:00 6,4 C 6,7 C 64 % 1010 hPa 0,4 l/m 11,7 m/s (2 Bft) W 0,00 h 1,45 klux 0,1 C -6,6 C
07.02.2004 09:00 5,6 C 5,7 C 70 % 1011 hPa 0,0 l/m 8,4 m/s (2 Bft) W 0,25 h 12,9 klux 0,4 C -5,5 C
07.02.2004 10:00 6,4 C 6,5 C 62 % 1012 hPa 0,0 l/m 8,3 m/s (2 Bft) W 0,00 h 9,5 klux -0,4 C -4,3 C
07.02.2004 11:00 6,1 C 6,5 C 62 % 1013 hPa 0,0 l/m 8,9 m/s (2 Bft) W-SW 0,08 h 13,9 klux -0,5 C -5,2 C
07.02.2004 12:00 6,9 C 7,0 C 55 % 1013 hPa 0,0 l/m 9,8 m/s (2 Bft) W-SW 0,00 h 9,4 klux -1,6 C -4,8 C
07.02.2004 13:00 7,3 C 7,4 C 54 % 1013 hPa 0,0 l/m 9,2 m/s (2 Bft) W-SW 0,00 h 14,1 klux -1,5 C -3,8 C
07.02.2004 14:00 8,4 C 9,2 C 45 % 1013 hPa 0,0 l/m 11,8 m/s (2 Bft) W 0,75 h 37,8 klux -2,9 C -3,7 C
07.02.2004 15:00 8,1 C 8,8 C 42 % 1013 hPa 0,0 l/m 12,9 m/s (3 Bft) W-SW 0,83 h 29,2 klux -4,1 C -4,7 C
07.02.2004 16:00 7,7 C 8,1 C 45 % 1013 hPa 0,0 l/m 10,3 m/s (2 Bft) W-SW 0,25 h 6,44 klux -3,4 C -4,0 C
07.02.2004 17:00 7,0 C 7,3 C 48 % 1014 hPa 0,0 l/m 8,3 m/s (2 Bft) W-SW 0,17 h 987 lux -3,2 C -3,4 C
07.02.2004 18:00 6,5 C 6,6 C 51 % 1014 hPa 0,0 l/m 6,9 m/s (2 Bft) W-SW 0,00 h 11 lux -3,0 C -2,5 C
07.02.2004 19:00 6,1 C 6,1 C 51 % 1014 hPa 0,0 l/m 5,6 m/s (1 Bft) W-SW 0,00 h 0 lux -3,2 C -1,7 C
07.02.2004 20:00 5,4 C 5,6 C 55 % 1014 hPa 0,0 l/m 4,8 m/s (1 Bft) W-SW 0,00 h 0 lux -2,9 C -1,3 C
07.02.2004 21:00 4,6 C 4,9 C 60 % 1014 hPa 0,0 l/m 4,5 m/s (1 Bft) W-SW 0,00 h 0 lux -2,4 C -1,9 C
07.02.2004 22:00 4,4 C 4,7 C 63 % 1014 hPa 0,0 l/m 6,0 m/s (2 Bft) W-SW 0,00 h 0 lux -2,0 C -4,4 C
07.02.2004 23:00 4,3 C 4,8 C 70 % 1013 hPa 1,8 l/m 6,3 m/s (2 Bft) W-SW 0,00 h 0 lux -0,7 C -5,0 C
08.02.2004 00:00 2,6 C 3,5 C 84 % 1012 hPa 0,4 l/m 4,5 m/s (1 Bft) W-SW 0,00 h 0 lux 0,2 C -4,2 C
08.02.2004 01:00 3,3 C 3,6 C 77 % 1011 hPa 0,0 l/m 5,9 m/s (2 Bft) W-SW 0,00 h 0 lux -0,4 C -5,7 C
08.02.2004 02:00 3,3 C 3,7 C 74 % 1010 hPa 0,0 l/m 7,0 m/s (2 Bft) SW 0,00 h 0 lux -0,9 C -7,1 C
08.02.2004 03:00 3,1 C 3,5 C 71 % 1009 hPa 0,0 l/m 6,4 m/s (2 Bft) W-SW 0,00 h 0 lux -1,6 C -6,5 C
08.02.2004 04:00 3,1 C 3,4 C 73 % 1007 hPa 0,0 l/m 7,7 m/s (2 Bft) W-SW 0,00 h 0 lux -1,3 C -8,2 C
08.02.2004 05:00 2,3 C 2,7 C 81 % 1006 hPa 0,4 l/m 7,4 m/s (2 Bft) W-SW 0,00 h 0 lux -0,6 C -8,8 C
08.02.2004 06:00 1,7 C 2,0 C 84 % 1006 hPa 1,4 l/m 7,3 m/s (2 Bft) W-SW 0,00 h 0 lux -0,8 C -9,7 C
08.02.2004 07:00 1,2 C 1,2 C 79 % 1005 hPa 0,4 l/m 7,9 m/s (2 Bft) W-SW 0,00 h 130 lux -2,1 C -10,9 C
08.02.2004 08:00 1,0 C 1,2 C 83 % 1005 hPa 0,0 l/m 6,8 m/s (2 Bft) W-SW 0,00 h 505 lux -1,6 C -9,9 C
08.02.2004 09:00 1,2 C 1,1 C 86 % 1004 hPa 1,1 l/m 6,2 m/s (2 Bft) W-SW 0,00 h 1,90 klux -0,8 C -8,8 C
08.02.2004 10:00 1,9 C 1,8 C 82 % 1004 hPa 1,4 l/m 9,5 m/s (2 Bft) W-SW 0,00 h 4,07 klux -0,8 C -11,7 C
08.02.2004 11:00 1,9 C 1,9 C 77 % 1005 hPa 0,4 l/m 10,9 m/s (2 Bft) W-SW 0,00 h 14,9 klux -1,7 C -12,7 C
08.02.2004 12:00 2,0 C 2,6 C 76 % 1006 hPa 0,0 l/m 10,9 m/s (2 Bft) W 0,17 h 21,8 klux -1,8 C -12,5 C
08.02.2004 13:00 2,2 C 2,9 C 76 % 1007 hPa 0,4 l/m 7,3 m/s (2 Bft) W-SW 0,25 h 24,4 klux -1,5 C -8,9 C
08.02.2004 14:00 0,8 C 1,8 C 85 % 1007 hPa 0,0 l/m 4,2 m/s (1 Bft) W-SW 0,33 h 24,3 klux -1,5 C -5,7 C
08.02.2004 15:00 2,3 C 2,7 C 75 % 1007 hPa 1,1 l/m 5,6 m/s (1 Bft) W-SW 0,75 h 28,8 klux -1,7 C -6,1 C
08.02.2004 16:00 1,5 C 2,3 C 79 % 1007 hPa 0,4 l/m 9,9 m/s (2 Bft) W-SW 0,00 h 1,09 klux -1,8 C -12,1 C
08.02.2004 17:00 0,6 C 0,9 C 84 % 1009 hPa 0,0 l/m 5,1 m/s (1 Bft) W-SW 0,00 h 548 lux -1,8 C -7,9 C
08.02.2004 18:00 0,5 C 0,7 C 79 % 1011 hPa 0,0 l/m 5,0 m/s (1 Bft) W 0,00 h 30 lux -2,6 C -7,7 C
08.02.2004 19:00 0,6 C 0,6 C 81 % 1012 hPa 0,0 l/m 3,6 m/s (1 Bft) W 0,00 h 0 lux -2,3 C -5,0 C
08.02.2004 20:00 0,6 C 0,9 C 85 % 1012 hPa 0,0 l/m 2,6 m/s (1 Bft) W-SW 0,00 h 0 lux -1,6 C -2,2 C
08.02.2004 21:00 0,2 C 0,6 C 91 % 1013 hPa 0,0 l/m 0,0 m/s (0 Bft) N 0,00 h 0 lux -1,1 C 0,2 C
08.02.2004 22:00 0,4 C 0,7 C 87 % 1014 hPa 0,0 l/m 0,0 m/s (0 Bft) N 0,00 h 0 lux -1,4 C 0,4 C
08.02.2004 23:00 0,2 C 0,6 C 91 % 1015 hPa 0,0 l/m 0,0 m/s (0 Bft) N 0,00 h 0 lux -1,1 C 0,2 C
Min-Datum _ 08.02.04 08.02.04 07.02.04 08.02.04 - 04.02.04 - - - 07.02.04 08.02.04
_ Min-Zeit 21:30 19:05 14:40 10:15 - 01:40 - - - 15:10 11:30
Minimum _ 0,1 C 0,5 C 41 % 1003 hPa - 0,0 m/s (0 Bft) - - - -4,4 C -15,8 C
Max-Datum _ 04.02.04 06.02.04 08.02.04 04.02.04 02.02.04 08.02.04 - 03.02.04 08.02.04 02.02.04 04.02.04
_ Max-Zeit 14:50 11:55 23:40 03:05 12:00 11:30 - 10:00 12:30 16:35 13:05
Maximum _ 14,3 C 14,8 C 92 % 1029 hPa 1,8 l/m 17,0 m/s
W-SW (7 Bft)
- 1,00 h 69,6 klux 8,3 C 13,2 C
Durchschnitt _ 8,9 C 9,1 C 67 % 1020 hPa #20,2 l/m 5,3 m/s (3 Bft) W-SW #10:05 h 4,64 klux 2,9 C 2,7 C

Durchschnitt Minimum Temp.8,5 C
Durchschnitt Maximum Temp.9,3 C